Terminal Aerodrome Forecast
Issued by NWS

Home | Current Version | Previous Version | Text Only | Print | Product List | Glossary Off
Versions: 1 2 3 4 5 6 7 8 9 10 11 12 13 14 15 16 17 18 19 20 21

000
FTUS43 KTOP 260520
TAFMHK
TAF
KMHK 260520Z 2606/2706 33003KT P6SM OVC009
     FM261000 32002KT 3SM BR OVC004
     FM261600 VRB02KT P6SM OVC014
     FM261900 06006KT P6SM BKN040
     FM270100 04006KT 6SM -RA BR OVC014=

USA.gov is the U.S. government's official web portal to all federal, state and local government web resources and services.